createdAt,value
2018-09-18T00:00:26.550Z,12.75
2018-09-18T00:02:57.735Z,11.44
2018-09-18T00:05:28.645Z,13.08
2018-09-18T00:07:59.402Z,11.97
2018-09-18T00:10:30.862Z,12.90
2018-09-18T00:13:01.665Z,12.13
2018-09-18T00:15:32.668Z,12.40
2018-09-18T00:18:03.464Z,12.43
2018-09-18T00:20:34.865Z,12.32
2018-09-18T00:23:05.698Z,11.97
2018-09-18T00:25:37.387Z,11.88
2018-09-18T00:28:09.137Z,11.68
2018-09-18T00:30:39.075Z,11.93
2018-09-18T00:33:09.756Z,12.47
2018-09-18T00:35:41.132Z,12.90
2018-09-18T00:38:11.753Z,11.93
2018-09-18T00:40:42.678Z,11.95
2018-09-18T00:43:14.797Z,11.97
2018-09-18T00:45:44.931Z,12.37
2018-09-18T00:48:15.842Z,12.47
2018-09-18T00:50:46.877Z,12.28
2018-09-18T00:53:17.848Z,10.72
2018-09-18T00:55:48.792Z,11.78
2018-09-18T00:58:19.592Z,11.70
2018-09-18T01:00:50.596Z,11.35
2018-09-18T01:03:21.850Z,12.10
2018-09-18T01:05:52.716Z,11.45
2018-09-18T01:08:23.750Z,11.40
2018-09-18T01:10:54.645Z,11.00
2018-09-18T01:13:30.467Z,12.50
2018-09-18T01:16:00.340Z,11.20
2018-09-18T01:18:45.218Z,12.23
2018-09-18T01:21:15.072Z,12.67
2018-09-18T01:23:45.423Z,12.47
2018-09-18T01:26:15.589Z,13.22
2018-09-18T01:28:45.664Z,12.47
2018-09-18T01:31:15.962Z,12.82
2018-09-18T01:33:45.841Z,12.70
2018-09-18T01:36:15.716Z,12.23
2018-09-18T01:38:45.959Z,12.67
2018-09-18T01:41:15.724Z,13.07
2018-09-18T01:43:45.711Z,12.40
2018-09-18T01:46:15.787Z,13.63
2018-09-18T01:48:46.101Z,13.65
2018-09-18T01:51:16.566Z,12.93
2018-09-18T01:53:46.331Z,13.57
2018-09-18T01:56:16.592Z,12.77
2018-09-18T01:58:46.598Z,12.20
2018-09-18T02:01:16.425Z,13.23
2018-09-18T02:03:46.563Z,13.47
2018-09-18T02:06:16.477Z,12.85
2018-09-18T02:08:49.284Z,13.64
2018-09-18T02:11:19.305Z,13.37
2018-09-18T02:13:50.043Z,12.65
2018-09-18T02:16:21.118Z,13.30
2018-09-18T02:18:51.957Z,12.45
2018-09-18T02:21:23.031Z,13.22
2018-09-18T02:23:54.006Z,13.05
2018-09-18T02:26:24.640Z,12.20
2018-09-18T02:28:55.836Z,12.93
2018-09-18T02:31:26.447Z,13.53
2018-09-18T02:33:56.833Z,13.70
2018-09-18T02:36:27.634Z,13.80
2018-09-18T02:38:58.579Z,13.48
2018-09-18T02:41:29.776Z,13.30
2018-09-18T02:44:00.771Z,13.35
2018-09-18T02:46:31.779Z,12.70
2018-09-18T02:49:02.835Z,12.90
2018-09-18T02:51:33.657Z,12.05
2018-09-18T02:54:04.618Z,12.70
2018-09-18T02:56:35.430Z,12.20
2018-09-18T02:59:07.022Z,12.66
2018-09-18T03:01:37.996Z,13.48
2018-09-18T03:04:08.830Z,12.07
2018-09-18T03:06:39.628Z,13.58
2018-09-18T03:09:11.619Z,12.90
2018-09-18T03:11:41.511Z,12.70
2018-09-18T03:14:13.756Z,13.88
2018-09-18T03:16:43.578Z,12.47
2018-09-18T03:19:14.636Z,13.08
2018-09-18T03:21:45.462Z,12.98
2018-09-18T03:24:16.951Z,13.22
2018-09-18T03:26:47.757Z,11.93
2018-09-18T03:29:18.749Z,13.13
2018-09-18T03:31:49.300Z,13.10
2018-09-18T03:34:19.989Z,13.58
2018-09-18T03:36:50.873Z,13.35
2018-09-18T03:39:21.973Z,12.45
2018-09-18T03:41:52.788Z,13.50
2018-09-18T03:44:24.239Z,13.23
2018-09-18T03:46:54.790Z,13.80
2018-09-18T03:49:25.920Z,14.38
2018-09-18T03:51:56.749Z,13.43
2018-09-18T03:54:29.629Z,14.63
2018-09-18T03:56:59.347Z,14.47
2018-09-18T03:59:29.992Z,15.42
2018-09-18T04:02:01.598Z,13.90
2018-09-18T04:04:31.388Z,13.70
2018-09-18T04:07:02.946Z,13.72
2018-09-18T04:09:33.770Z,14.83
2018-09-18T04:12:04.837Z,14.18
2018-09-18T04:14:35.618Z,13.75
2018-09-18T04:17:06.898Z,13.53
2018-09-18T04:19:37.725Z,12.78
2018-09-18T04:22:08.794Z,13.43
2018-09-18T04:24:39.634Z,12.43
2018-09-18T04:27:10.749Z,14.03
2018-09-18T04:29:42.788Z,13.10
2018-09-18T04:32:12.777Z,13.47
2018-09-18T04:34:42.557Z,12.27
2018-09-18T04:37:13.609Z,13.15
2018-09-18T04:39:44.545Z,13.72
2018-09-18T04:42:15.793Z,13.92
2018-09-18T04:44:46.713Z,13.70
2018-09-18T04:47:17.680Z,13.95
2018-09-18T04:49:54.093Z,12.43
2018-09-18T04:52:24.007Z,12.70
2018-09-18T04:54:54.625Z,12.75
2018-09-18T04:57:24.754Z,13.30
2018-09-18T04:59:54.541Z,12.67
2018-09-18T05:02:24.798Z,12.53
2018-09-18T05:04:54.707Z,12.90
2018-09-18T05:07:24.541Z,13.37
2018-09-18T05:09:55.950Z,12.82
2018-09-18T05:12:26.727Z,12.68
2018-09-18T05:14:57.664Z,13.85
2018-09-18T05:17:28.543Z,14.07
2018-09-18T05:19:59.825Z,16.82
2018-09-18T05:22:30.648Z,16.65
2018-09-18T05:25:01.726Z,16.30
2018-09-18T05:27:32.584Z,15.03
2018-09-18T05:30:03.559Z,15.30
2018-09-18T05:32:34.812Z,14.34
2018-09-18T05:35:06.098Z,15.98
2018-09-18T05:37:36.904Z,15.40
2018-09-18T05:40:08.017Z,15.95
2018-09-18T05:42:38.595Z,15.72
2018-09-18T05:45:09.798Z,17.77
2018-09-18T05:47:40.640Z,17.20
2018-09-18T05:50:11.815Z,19.52
2018-09-18T05:52:42.642Z,18.55
2018-09-18T05:55:13.558Z,17.20
2018-09-18T05:57:44.760Z,16.26
2018-09-18T06:00:15.832Z,16.62
2018-09-18T06:02:48.792Z,16.73
2018-09-18T06:05:18.854Z,18.40
2018-09-18T06:07:48.713Z,15.35
2018-09-18T06:10:20.756Z,16.85
2018-09-18T06:12:52.995Z,17.73
2018-09-18T06:15:24.121Z,16.93
2018-09-18T06:17:55.126Z,17.63
2018-09-18T06:20:25.653Z,16.97
2018-09-18T06:22:58.389Z,18.47
2018-09-18T06:25:28.378Z,18.45
2018-09-18T06:27:58.283Z,17.47
2018-09-18T06:30:28.299Z,18.87
2018-09-18T06:32:58.861Z,18.60
2018-09-18T06:35:29.710Z,18.17
2018-09-18T06:38:00.704Z,17.57
2018-09-18T06:40:33.068Z,17.20
2018-09-18T06:43:02.988Z,16.73
2018-09-18T06:45:34.076Z,15.75
2018-09-18T06:48:04.733Z,17.80
2018-09-18T06:50:35.875Z,17.65
2018-09-18T06:53:07.046Z,17.82
2018-09-18T06:55:37.819Z,16.52
2018-09-18T06:58:08.661Z,16.20
2018-09-18T07:00:39.597Z,16.05
2018-09-18T07:03:10.426Z,15.23
2018-09-18T07:05:41.843Z,14.38
2018-09-18T07:08:12.631Z,14.28
2018-09-18T07:10:43.587Z,14.45
2018-09-18T07:13:14.714Z,14.12
2018-09-18T07:15:45.585Z,13.70
2018-09-18T07:18:16.376Z,12.47
2018-09-18T07:20:47.893Z,12.88
2018-09-18T07:23:18.610Z,12.15
2018-09-18T07:25:49.621Z,12.78
2018-09-18T07:28:20.845Z,12.30
2018-09-18T07:30:51.857Z,12.33
2018-09-18T07:33:22.849Z,13.00
2018-09-18T07:35:53.607Z,11.68
2018-09-18T07:38:24.536Z,11.18
2018-09-18T07:40:55.797Z,11.68
2018-09-18T07:43:26.725Z,10.55
2018-09-18T07:45:57.632Z,9.83
2018-09-18T07:48:35.199Z,9.65
2018-09-18T07:51:06.341Z,9.40
2018-09-18T07:53:36.194Z,9.70
2018-09-18T07:56:13.919Z,9.53
2018-09-18T07:58:43.624Z,8.77
2018-09-18T08:01:13.498Z,8.93
2018-09-18T08:03:43.314Z,8.43
2018-09-18T08:06:13.119Z,8.87
2018-09-18T08:08:43.448Z,8.15
2018-09-18T08:11:13.222Z,8.00
2018-09-18T08:13:43.141Z,8.07
2018-09-18T08:16:13.472Z,8.05
2018-09-18T08:18:43.618Z,7.20
2018-09-18T08:21:13.948Z,7.30
2018-09-18T08:23:43.707Z,7.30
2018-09-18T08:26:13.642Z,7.37
2018-09-18T08:28:44.561Z,6.62
2018-09-18T08:31:16.062Z,7.35
2018-09-18T08:33:46.712Z,7.37
2018-09-18T08:36:17.472Z,6.97
2018-09-18T08:38:48.805Z,7.48
2018-09-18T08:41:19.634Z,9.45
2018-09-18T08:43:50.584Z,6.60
2018-09-18T08:46:21.642Z,5.60
2018-09-18T08:48:57.755Z,6.22
2018-09-18T08:51:27.967Z,6.30
2018-09-18T08:53:58.446Z,6.30
2018-09-18T08:56:28.210Z,6.10
2018-09-18T08:58:58.528Z,5.70
2018-09-18T09:01:28.296Z,6.33
2018-09-18T09:03:58.762Z,5.84
2018-09-18T09:06:30.920Z,5.37
2018-09-18T09:09:00.935Z,5.27
2018-09-18T09:11:31.698Z,5.80
2018-09-18T09:14:02.450Z,6.03
2018-09-18T09:16:33.758Z,5.42
2018-09-18T09:19:04.838Z,5.95
2018-09-18T09:21:35.641Z,5.92
2018-09-18T09:24:06.653Z,5.22
2018-09-18T09:26:37.631Z,6.00
2018-09-18T09:29:08.537Z,5.78
2018-09-18T09:31:39.384Z,5.25
2018-09-18T09:34:09.606Z,6.07
2018-09-18T09:36:40.652Z,5.70
2018-09-18T09:39:12.786Z,85.67
2018-09-18T09:41:42.811Z,20.50
2018-09-18T09:44:13.666Z,6.03
2018-09-18T09:46:44.558Z,5.80
2018-09-18T09:49:16.399Z,5.92
2018-09-18T09:51:46.891Z,6.00
2018-09-18T09:54:17.760Z,10.00
2018-09-18T09:56:49.655Z,10.15
2018-09-18T09:59:19.614Z,7.90
2018-09-18T10:01:55.840Z,7.53
2018-09-18T10:04:25.824Z,6.45
2018-09-18T10:06:55.817Z,6.03
2018-09-18T10:09:25.692Z,5.80
2018-09-18T10:11:55.447Z,6.25
2018-09-18T10:14:25.808Z,6.22
2018-09-18T10:16:56.625Z,7.10
2018-09-18T10:19:27.468Z,7.40
2018-09-18T10:21:58.864Z,5.46
2018-09-18T10:24:29.698Z,5.00
2018-09-18T10:27:00.845Z,6.62
2018-09-18T10:29:31.618Z,6.60
2018-09-18T10:32:02.419Z,5.40
2018-09-18T10:34:32.380Z,5.95
2018-09-18T10:37:03.810Z,5.48
2018-09-18T10:39:34.629Z,5.60
2018-09-18T10:42:06.020Z,5.72
2018-09-18T10:44:36.757Z,6.10
2018-09-18T10:47:07.785Z,5.92
2018-09-18T10:49:38.461Z,5.10
2018-09-18T10:52:09.878Z,5.04
2018-09-18T10:54:40.626Z,4.95
2018-09-18T10:57:11.582Z,4.42
2018-09-18T10:59:42.481Z,4.78
2018-09-18T11:02:13.625Z,4.37
2018-09-18T11:04:45.064Z,4.47
2018-09-18T11:07:15.866Z,4.70
2018-09-18T11:09:46.718Z,4.70
2018-09-18T11:12:17.659Z,4.72
2018-09-18T11:14:48.980Z,4.70
2018-09-18T11:17:19.695Z,4.48
2018-09-18T11:19:51.348Z,4.10
2018-09-18T11:22:21.553Z,4.60
2018-09-18T11:24:52.614Z,4.62
2018-09-18T11:27:34.471Z,4.30
2018-09-18T11:30:04.793Z,4.50
2018-09-18T11:32:42.343Z,4.20
2018-09-18T11:35:12.136Z,4.47
2018-09-18T11:37:42.536Z,3.83
2018-09-18T11:40:12.574Z,4.45
2018-09-18T11:42:42.908Z,4.33
2018-09-18T11:45:12.775Z,3.50
2018-09-18T11:47:42.882Z,4.23
2018-09-18T11:50:13.095Z,4.00
2018-09-18T11:52:43.494Z,4.15
2018-09-18T11:55:13.571Z,3.70
2018-09-18T11:57:43.331Z,4.23
2018-09-18T12:00:13.223Z,3.50
2018-09-18T12:02:43.199Z,3.90
2018-09-18T12:05:13.580Z,3.60
2018-09-18T12:07:43.442Z,4.10
2018-09-18T12:10:13.225Z,4.10
2018-09-18T12:12:43.521Z,3.40
2018-09-18T12:15:13.394Z,3.50
2018-09-18T12:17:43.846Z,3.82
2018-09-18T12:20:14.637Z,3.62
2018-09-18T12:22:46.145Z,4.50
2018-09-18T12:25:16.808Z,3.66
2018-09-18T12:27:47.623Z,3.98
2018-09-18T12:30:18.636Z,4.10
2018-09-18T12:32:49.594Z,3.58
2018-09-18T12:35:20.431Z,3.58
2018-09-18T12:37:51.434Z,3.67
2018-09-18T12:40:22.424Z,3.67
2018-09-18T12:42:53.649Z,3.72
2018-09-18T12:45:25.495Z,3.74
2018-09-18T12:47:55.462Z,3.70
2018-09-18T12:50:26.926Z,3.37
2018-09-18T12:52:57.916Z,3.70
2018-09-18T12:55:28.558Z,4.10
2018-09-18T12:57:59.582Z,3.83
2018-09-18T13:00:30.453Z,4.08
2018-09-18T13:03:01.873Z,3.72
2018-09-18T13:05:32.848Z,3.80
2018-09-18T13:08:03.790Z,3.50
2018-09-18T13:10:34.727Z,3.85
2018-09-18T13:13:05.543Z,3.52
2018-09-18T13:15:36.510Z,3.67
2018-09-18T13:18:07.947Z,4.00
2018-09-18T13:20:38.904Z,3.42
2018-09-18T13:23:09.856Z,3.80
2018-09-18T13:25:40.615Z,3.65
2018-09-18T13:28:11.608Z,3.67
2018-09-18T13:30:42.798Z,3.75
2018-09-18T13:33:13.604Z,3.80
2018-09-18T13:35:44.602Z,3.87
2018-09-18T13:38:15.353Z,3.50
2018-09-18T13:40:46.931Z,3.88
2018-09-18T13:43:17.985Z,3.45
2018-09-18T13:45:49.367Z,3.80
2018-09-18T13:48:19.997Z,3.86
2018-09-18T13:50:50.821Z,3.95
2018-09-18T13:53:21.845Z,3.47
2018-09-18T13:55:52.757Z,3.87
2018-09-18T13:58:23.522Z,3.33
2018-09-18T14:00:54.628Z,3.47
2018-09-18T14:03:25.528Z,3.30
2018-09-18T14:05:56.644Z,3.70
2018-09-18T14:08:27.349Z,3.58
2018-09-18T14:10:58.852Z,3.50
2018-09-18T14:13:29.636Z,3.90
2018-09-18T14:16:00.536Z,4.05
2018-09-18T14:18:31.412Z,3.58
2018-09-18T14:21:03.063Z,3.62
2018-09-18T14:23:33.765Z,3.20
2018-09-18T14:26:04.579Z,3.02
2018-09-18T14:28:35.603Z,3.40
2018-09-18T14:31:06.417Z,3.50
2018-09-18T14:33:37.853Z,3.96
2018-09-18T14:36:08.701Z,3.27
2018-09-18T14:38:39.544Z,3.67
2018-09-18T14:41:10.561Z,3.83
2018-09-18T14:43:41.433Z,3.15
2018-09-18T14:46:12.790Z,4.06
2018-09-18T14:48:42.631Z,3.50
2018-09-18T14:51:13.664Z,3.65
2018-09-18T14:53:44.667Z,3.62
2018-09-18T14:56:15.551Z,3.70
2018-09-18T14:58:46.535Z,3.50
2018-09-18T15:01:17.344Z,3.30
2018-09-18T15:03:48.814Z,3.88
2018-09-18T15:06:19.772Z,3.75
2018-09-18T15:08:50.658Z,3.85
2018-09-18T15:11:20.760Z,3.40
2018-09-18T15:13:51.626Z,3.55
2018-09-18T15:16:22.375Z,3.85
2018-09-18T15:18:53.823Z,3.82
2018-09-18T15:21:24.592Z,3.65
2018-09-18T15:23:55.692Z,3.72
2018-09-18T15:26:26.464Z,3.60
2018-09-18T15:28:58.052Z,3.82
2018-09-18T15:31:28.826Z,3.42
2018-09-18T15:33:59.817Z,3.67
2018-09-18T15:36:30.722Z,3.50
2018-09-18T15:39:01.558Z,3.42
2018-09-18T15:41:32.465Z,4.03
2018-09-18T15:44:03.431Z,3.47
2018-09-18T15:46:35.062Z,4.10
2018-09-18T15:49:05.757Z,3.65
2018-09-18T15:51:37.386Z,4.03
2018-09-18T15:54:07.896Z,3.33
2018-09-18T15:56:37.826Z,3.77
2018-09-18T15:59:09.640Z,3.87
2018-09-18T16:01:39.569Z,3.73
2018-09-18T16:04:10.470Z,3.85
2018-09-18T16:06:42.016Z,3.50
2018-09-18T16:09:12.879Z,3.87
2018-09-18T16:11:44.782Z,3.80
2018-09-18T16:14:14.592Z,3.43
2018-09-18T16:16:45.530Z,3.67
2018-09-18T16:19:16.704Z,3.42
2018-09-18T16:21:47.730Z,3.98
2018-09-18T16:24:17.503Z,3.83
2018-09-18T16:26:48.648Z,3.50
2018-09-18T16:29:19.917Z,3.83
2018-09-18T16:31:50.662Z,4.12
2018-09-18T16:34:20.420Z,3.97
2018-09-18T16:36:52.103Z,4.18
2018-09-18T16:39:23.022Z,4.04
2018-09-18T16:41:53.894Z,3.67
2018-09-18T16:44:25.071Z,3.90
2018-09-18T16:46:56.030Z,3.98
2018-09-18T16:49:26.733Z,4.47
2018-09-18T16:51:57.631Z,4.10
2018-09-18T16:54:28.670Z,3.62
2018-09-18T16:56:59.883Z,3.80
2018-09-18T16:59:30.986Z,3.58
2018-09-18T17:02:01.745Z,3.90
2018-09-18T17:04:32.727Z,3.47
2018-09-18T17:07:03.801Z,3.87
2018-09-18T17:09:34.522Z,3.52
2018-09-18T17:12:05.967Z,3.90
2018-09-18T17:14:36.682Z,3.83
2018-09-18T17:17:07.676Z,3.47
2018-09-18T17:19:38.535Z,3.60
2018-09-18T17:22:09.771Z,4.22
2018-09-18T17:24:40.590Z,3.52
2018-09-18T17:27:11.727Z,4.08
2018-09-18T17:29:42.723Z,4.05
2018-09-18T17:32:13.546Z,4.17
2018-09-18T17:34:45.340Z,3.98
2018-09-18T17:37:16.921Z,4.20
2018-09-18T17:39:46.894Z,4.00
2018-09-18T17:42:17.712Z,4.10
2018-09-18T17:44:57.066Z,3.92
2018-09-18T17:47:27.477Z,3.87
2018-09-18T17:49:57.614Z,4.00
2018-09-18T17:52:27.431Z,3.77
2018-09-18T17:54:57.364Z,4.50
2018-09-18T17:57:27.116Z,4.10
2018-09-18T17:59:56.936Z,4.10
2018-09-18T18:02:26.739Z,3.98
2018-09-18T18:04:56.636Z,4.60
2018-09-18T18:07:27.418Z,4.87
2018-09-18T18:09:58.802Z,4.24
2018-09-18T18:12:29.512Z,4.55
2018-09-18T18:15:00.822Z,4.34
2018-09-18T18:17:30.658Z,4.20
2018-09-18T18:20:01.785Z,4.50
2018-09-18T18:22:31.620Z,4.73
2018-09-18T18:25:02.601Z,4.90
2018-09-18T18:27:34.166Z,4.40
2018-09-18T18:30:04.978Z,4.83
2018-09-18T18:32:35.751Z,4.37
2018-09-18T18:35:08.049Z,4.47
2018-09-18T18:37:39.330Z,4.90
2018-09-18T18:40:09.417Z,5.17
2018-09-18T18:42:40.022Z,5.08
2018-09-18T18:45:10.660Z,5.05
2018-09-18T18:47:41.665Z,4.72
2018-09-18T18:50:20.288Z,5.00
2018-09-18T18:52:50.390Z,5.30
2018-09-18T18:55:20.446Z,4.97
2018-09-18T18:57:51.236Z,4.80
2018-09-18T19:00:21.121Z,5.67
2018-09-18T19:02:51.495Z,5.20
2018-09-18T19:05:21.630Z,5.40
2018-09-18T19:07:51.394Z,5.37
2018-09-18T19:10:21.287Z,5.03
2018-09-18T19:12:52.162Z,5.48
2018-09-18T19:15:22.694Z,5.30
2018-09-18T19:17:53.559Z,5.20
2018-09-18T19:20:24.629Z,4.75
2018-09-18T19:22:55.442Z,4.83
2018-09-18T19:25:26.697Z,5.18
2018-09-18T19:27:57.536Z,5.22
2018-09-18T19:30:28.428Z,5.00
2018-09-18T19:33:00.044Z,4.86
2018-09-18T19:35:30.727Z,4.78
2018-09-18T19:38:01.700Z,4.35
2018-09-18T19:40:32.483Z,4.75
2018-09-18T19:43:03.490Z,4.75
2018-09-18T19:45:34.791Z,4.56
2018-09-18T19:48:10.587Z,4.90
2018-09-18T19:50:40.896Z,5.13
2018-09-18T19:53:10.676Z,5.20
2018-09-18T19:55:40.707Z,5.27
2018-09-18T19:58:10.448Z,5.20
2018-09-18T20:00:40.682Z,4.55
2018-09-18T20:03:11.445Z,5.50
2018-09-18T20:05:42.463Z,4.58
2018-09-18T20:08:13.689Z,4.64
2018-09-18T20:10:43.598Z,5.10
2018-09-18T20:13:14.545Z,4.50
2018-09-18T20:15:45.621Z,5.00
2018-09-18T20:18:16.317Z,8.28
2018-09-18T20:20:47.904Z,5.60
2018-09-18T20:23:18.594Z,5.22
2018-09-18T20:25:49.597Z,5.22
2018-09-18T20:28:20.382Z,4.87
2018-09-18T20:30:51.815Z,5.76
2018-09-18T20:33:23.068Z,5.83
2018-09-18T20:35:54.260Z,6.03
2018-09-18T20:38:24.762Z,6.02
2018-09-18T20:40:55.522Z,5.75
2018-09-18T20:43:26.669Z,5.90
2018-09-18T20:45:57.549Z,6.05
2018-09-18T20:48:28.462Z,5.97
2018-09-18T20:50:59.652Z,5.87
2018-09-18T20:53:30.421Z,5.80
2018-09-18T20:56:04.133Z,5.90
2018-09-18T20:58:34.884Z,6.20
2018-09-18T21:01:04.782Z,6.20
2018-09-18T21:03:34.573Z,5.90
2018-09-18T21:06:05.526Z,6.00
2018-09-18T21:08:36.379Z,5.47
2018-09-18T21:11:07.557Z,5.45
2018-09-18T21:13:38.725Z,5.58
2018-09-18T21:16:09.534Z,5.25
2018-09-18T21:18:40.402Z,4.75
2018-09-18T21:21:18.039Z,5.54
2018-09-18T21:23:48.353Z,5.53
2018-09-18T21:26:19.139Z,4.67
2018-09-18T21:28:49.747Z,4.40
2018-09-18T21:31:19.621Z,4.87
2018-09-18T21:33:49.330Z,4.40
2018-09-18T21:36:19.120Z,4.40
2018-09-18T21:38:49.439Z,4.20
2018-09-18T21:41:19.220Z,4.33
2018-09-18T21:43:49.687Z,4.40
2018-09-18T21:46:20.444Z,3.72
2018-09-18T21:48:51.895Z,3.88
2018-09-18T21:51:22.560Z,3.95
2018-09-18T21:53:53.545Z,4.00
2018-09-18T21:56:24.445Z,3.98
2018-09-18T21:58:55.779Z,3.68
2018-09-18T22:01:26.783Z,4.03
2018-09-18T22:03:57.856Z,3.45
2018-09-18T22:06:28.550Z,3.80
2018-09-18T22:08:59.420Z,3.67
2018-09-18T22:11:30.701Z,3.70
2018-09-18T22:14:01.479Z,3.75
2018-09-18T22:16:32.657Z,3.90
2018-09-18T22:19:03.608Z,3.37
2018-09-18T22:21:34.810Z,3.87
2018-09-18T22:24:05.634Z,3.47
2018-09-18T22:26:36.354Z,3.30
2018-09-18T22:29:08.002Z,3.36
2018-09-18T22:31:37.823Z,3.20
2018-09-18T22:34:08.627Z,3.33
2018-09-18T22:36:39.369Z,3.22
2018-09-18T22:39:11.266Z,3.28
2018-09-18T22:41:41.718Z,3.67
2018-09-18T22:44:12.489Z,2.70
2018-09-18T22:46:43.699Z,3.42
2018-09-18T22:49:14.512Z,3.47
2018-09-18T22:51:45.276Z,3.27
2018-09-18T22:54:18.091Z,3.20
2018-09-18T22:56:48.090Z,3.17
2018-09-18T22:59:18.713Z,3.27
2018-09-18T23:01:49.397Z,3.05
2018-09-18T23:04:20.407Z,3.20
2018-09-18T23:06:51.608Z,3.10
2018-09-18T23:09:22.482Z,2.80
2018-09-18T23:11:53.682Z,3.18
2018-09-18T23:14:24.468Z,3.02
2018-09-18T23:16:55.288Z,3.30
2018-09-18T23:19:26.986Z,3.00
2018-09-18T23:21:57.599Z,3.30
2018-09-18T23:24:28.661Z,2.92
2018-09-18T23:26:59.355Z,3.33
2018-09-18T23:29:31.006Z,3.50
2018-09-18T23:32:01.204Z,2.93
2018-09-18T23:34:31.813Z,3.20
2018-09-18T23:37:02.581Z,3.10
2018-09-18T23:39:33.563Z,3.08
2018-09-18T23:42:04.444Z,3.30
2018-09-18T23:44:35.858Z,3.56
2018-09-18T23:47:07.545Z,3.48
2018-09-18T23:49:37.432Z,3.15
2018-09-18T23:52:08.715Z,3.42
2018-09-18T23:54:39.499Z,3.33
2018-09-18T23:57:10.523Z,3.45
2018-09-18T23:59:41.769Z,3.38
